createdAt,value
2022-09-18T00:00:00.288Z,0.82
2022-09-18T00:02:27.406Z,1.08
2022-09-18T00:04:54.633Z,1.08
2022-09-18T00:07:21.714Z,1.10
2022-09-18T00:09:48.787Z,1.10
2022-09-18T00:12:15.867Z,1.50
2022-09-18T00:14:43.032Z,1.63
2022-09-18T00:17:10.112Z,1.35
2022-09-18T00:19:37.392Z,0.77
2022-09-18T00:22:04.607Z,1.10
2022-09-18T00:24:31.859Z,0.95
2022-09-18T00:26:58.948Z,1.00
2022-09-18T00:29:26.039Z,0.82
2022-09-18T00:31:53.384Z,1.10
2022-09-18T00:34:41.420Z,0.85
2022-09-18T00:37:09.223Z,1.00
2022-09-18T00:39:36.435Z,0.90
2022-09-18T00:42:03.543Z,1.00
2022-09-18T00:44:38.655Z,1.00
2022-09-18T00:47:08.599Z,0.90
2022-09-18T00:49:36.576Z,0.90
2022-09-18T00:52:04.663Z,0.82
2022-09-18T00:54:34.936Z,0.98
2022-09-18T00:57:04.314Z,1.02
2022-09-18T00:59:32.505Z,0.88
2022-09-18T01:02:00.475Z,0.85
2022-09-18T01:04:28.665Z,1.05
2022-09-18T01:07:14.475Z,1.33
2022-09-18T01:09:57.041Z,0.98
2022-09-18T01:12:24.094Z,0.60
2022-09-18T01:15:12.891Z,1.77
2022-09-18T01:17:44.637Z,1.02
2022-09-18T01:20:12.100Z,1.10
2022-09-18T01:22:56.853Z,1.08
2022-09-18T01:25:42.782Z,0.80
2022-09-18T01:28:25.543Z,0.90
2022-09-18T01:30:56.449Z,1.65
2022-09-18T01:33:32.085Z,1.02
2022-09-18T01:36:00.795Z,0.88
2022-09-18T01:38:36.748Z,1.05
2022-09-18T01:41:10.104Z,1.08
2022-09-18T01:43:39.164Z,1.10
2022-09-18T01:46:10.705Z,1.05
2022-09-18T01:48:39.967Z,1.02
2022-09-18T01:51:11.445Z,0.80
2022-09-18T01:53:41.282Z,1.00
2022-09-18T01:56:20.689Z,0.90
2022-09-18T01:58:49.339Z,0.90
2022-09-18T02:03:45.610Z,1.00
2022-09-18T02:06:17.092Z,0.80
2022-09-18T02:08:49.303Z,0.95
2022-09-18T02:11:17.800Z,1.10
2022-09-18T02:13:47.032Z,0.80
2022-09-18T02:16:17.712Z,1.00
2022-09-18T02:18:47.432Z,1.00
2022-09-18T02:21:17.379Z,1.20
2022-09-18T02:23:45.152Z,0.80
2022-09-18T02:26:13.573Z,1.00
2022-09-18T02:28:41.568Z,1.15
2022-09-18T02:31:08.968Z,1.10
2022-09-18T02:33:36.908Z,1.15
2022-09-18T02:36:12.885Z,1.38
2022-09-18T02:38:55.289Z,1.00
2022-09-18T02:41:35.183Z,0.75
2022-09-18T02:44:06.740Z,0.93
2022-09-18T02:46:34.060Z,1.25
2022-09-18T02:49:04.259Z,0.80
2022-09-18T02:51:35.432Z,0.88
2022-09-18T02:54:06.042Z,1.20
2022-09-18T02:56:35.941Z,1.02
2022-09-18T02:59:10.102Z,1.13
2022-09-18T03:01:38.739Z,0.68
2022-09-18T03:04:06.582Z,0.82
2022-09-18T03:06:33.671Z,0.68
2022-09-18T03:09:00.751Z,0.95
2022-09-18T03:11:27.876Z,0.70
2022-09-18T03:13:55.092Z,0.55
2022-09-18T03:16:22.443Z,0.73
2022-09-18T03:18:49.571Z,0.60
2022-09-18T03:21:16.625Z,1.50
2022-09-18T03:23:45.654Z,0.73
2022-09-18T03:26:13.030Z,0.63
2022-09-18T03:28:40.130Z,0.70
2022-09-18T03:31:07.278Z,0.60
2022-09-18T03:33:34.363Z,0.70
2022-09-18T03:36:01.454Z,0.55
2022-09-18T03:38:28.544Z,0.50
2022-09-18T03:40:55.609Z,0.70
2022-09-18T03:43:22.689Z,0.80
2022-09-18T03:45:49.754Z,0.70
2022-09-18T03:48:16.882Z,0.55
2022-09-18T03:50:44.239Z,0.70
2022-09-18T03:53:12.108Z,0.50
2022-09-18T03:55:39.696Z,0.43
2022-09-18T03:58:07.169Z,1.35
2022-09-18T04:00:34.577Z,0.90
2022-09-18T04:03:01.726Z,0.65
2022-09-18T04:05:28.929Z,0.50
2022-09-18T04:07:56.129Z,0.52
2022-09-18T04:10:23.232Z,0.60
2022-09-18T04:12:50.345Z,1.05
2022-09-18T04:15:17.878Z,0.82
2022-09-18T04:17:44.926Z,0.63
2022-09-18T04:20:12.287Z,0.77
2022-09-18T04:22:39.393Z,0.75
2022-09-18T04:25:06.790Z,1.05
2022-09-18T04:27:34.848Z,0.88
2022-09-18T04:30:02.130Z,0.95
2022-09-18T04:32:29.183Z,0.70
2022-09-18T04:34:56.307Z,0.60
2022-09-18T04:37:23.394Z,0.70
2022-09-18T04:39:50.467Z,0.80
2022-09-18T04:42:17.550Z,0.90
2022-09-18T04:44:44.807Z,0.73
2022-09-18T04:47:11.950Z,0.57
2022-09-18T04:49:39.169Z,0.68
2022-09-18T04:52:06.271Z,0.70
2022-09-18T04:54:33.340Z,0.65
2022-09-18T04:57:00.506Z,0.70
2022-09-18T04:59:27.585Z,0.50
2022-09-18T05:01:54.720Z,0.70
2022-09-18T05:04:21.994Z,0.93
2022-09-18T05:06:49.128Z,0.88
2022-09-18T05:09:16.207Z,0.65
2022-09-18T05:11:43.401Z,0.50
2022-09-18T05:14:10.609Z,0.68
2022-09-18T05:16:37.853Z,0.80
2022-09-18T05:19:05.057Z,0.50
2022-09-18T05:21:32.174Z,1.10
2022-09-18T05:23:59.297Z,0.57
2022-09-18T05:26:26.813Z,0.70
2022-09-18T05:28:54.007Z,0.52
2022-09-18T05:31:21.219Z,0.90
2022-09-18T05:33:48.313Z,0.85
2022-09-18T05:36:15.402Z,0.60
2022-09-18T05:38:42.560Z,0.70
2022-09-18T05:41:09.726Z,0.60
2022-09-18T05:43:36.788Z,0.40
2022-09-18T05:46:03.916Z,0.60
2022-09-18T05:48:31.132Z,0.50
2022-09-18T05:50:58.196Z,0.50
2022-09-18T05:53:25.476Z,0.50
2022-09-18T05:55:52.679Z,1.13
2022-09-18T05:58:20.760Z,0.80
2022-09-18T06:00:48.590Z,0.80
2022-09-18T06:03:16.583Z,0.57
2022-09-18T06:05:44.355Z,0.93
2022-09-18T06:08:12.690Z,0.47
2022-09-18T06:10:41.083Z,0.52
2022-09-18T06:13:13.194Z,0.65
2022-09-18T06:15:40.560Z,0.70
2022-09-18T06:18:10.816Z,0.50
2022-09-18T06:20:37.933Z,0.90
2022-09-18T06:23:07.105Z,0.98
2022-09-18T06:25:34.304Z,0.80
2022-09-18T06:28:01.460Z,0.50
2022-09-18T06:30:30.103Z,0.40
2022-09-18T06:33:00.800Z,0.55
2022-09-18T06:35:27.952Z,0.70
2022-09-18T06:37:55.077Z,0.80
2022-09-18T06:40:22.322Z,1.00
2022-09-18T06:42:49.463Z,0.85
2022-09-18T06:45:16.535Z,0.57
2022-09-18T06:47:43.633Z,0.70
2022-09-18T06:50:11.252Z,0.68
2022-09-18T06:52:38.316Z,1.00
2022-09-18T06:55:05.602Z,0.63
2022-09-18T06:57:32.710Z,0.60
2022-09-18T06:59:59.783Z,0.90
2022-09-18T07:02:26.969Z,0.60
2022-09-18T07:04:54.112Z,0.60
2022-09-18T07:07:21.175Z,0.68
2022-09-18T07:09:48.285Z,0.60
2022-09-18T07:12:15.416Z,1.10
2022-09-18T07:14:42.517Z,0.80
2022-09-18T07:17:17.869Z,0.70
2022-09-18T07:19:46.271Z,0.60
2022-09-18T07:22:14.305Z,0.68
2022-09-18T07:24:41.382Z,0.57
2022-09-18T07:27:08.478Z,0.70
2022-09-18T07:29:35.780Z,0.77
2022-09-18T07:32:02.901Z,0.80
2022-09-18T07:34:30.549Z,0.90
2022-09-18T07:36:57.619Z,0.70
2022-09-18T07:39:24.730Z,0.60
2022-09-18T07:41:52.078Z,0.80
2022-09-18T07:44:19.183Z,0.60
2022-09-18T07:46:46.352Z,0.73
2022-09-18T07:49:13.493Z,0.50
2022-09-18T07:51:40.805Z,0.88
2022-09-18T07:54:07.866Z,1.60
2022-09-18T07:56:35.000Z,1.08
2022-09-18T07:59:02.058Z,0.60
2022-09-18T08:01:29.182Z,1.00
2022-09-18T08:03:56.980Z,1.00
2022-09-18T08:06:24.082Z,1.20
2022-09-18T08:08:54.942Z,0.80
2022-09-18T08:11:22.502Z,0.88
2022-09-18T08:13:50.042Z,0.80
2022-09-18T08:16:17.364Z,0.90
2022-09-18T08:18:44.546Z,1.13
2022-09-18T08:21:11.801Z,1.00
2022-09-18T08:23:38.957Z,0.80
2022-09-18T08:26:06.363Z,0.60
2022-09-18T08:28:33.459Z,0.93
2022-09-18T08:31:00.959Z,0.60
2022-09-18T08:33:28.153Z,0.50
2022-09-18T08:35:56.146Z,0.47
2022-09-18T08:38:23.376Z,0.60
2022-09-18T08:40:53.304Z,0.50
2022-09-18T08:43:26.404Z,0.45
2022-09-18T08:45:56.435Z,0.40
2022-09-18T08:48:35.612Z,0.30
2022-09-18T08:51:20.407Z,0.45
2022-09-18T08:53:49.953Z,0.43
2022-09-18T08:56:19.653Z,0.55
2022-09-18T08:58:58.671Z,0.40
2022-09-18T09:01:29.931Z,0.60
2022-09-18T09:04:00.739Z,1.15
2022-09-18T09:06:40.025Z,0.60
2022-09-18T09:09:26.298Z,0.57
2022-09-18T09:12:14.612Z,0.47
2022-09-18T09:15:07.975Z,0.50
2022-09-18T09:17:42.623Z,0.43
2022-09-18T09:23:02.139Z,0.50
2022-09-18T09:25:32.471Z,0.60
2022-09-18T09:28:01.843Z,0.70
2022-09-18T09:30:30.560Z,0.55
2022-09-18T09:33:17.973Z,0.85
2022-09-18T09:35:47.124Z,0.60
2022-09-18T09:38:33.090Z,0.70
2022-09-18T09:41:02.503Z,0.80
2022-09-18T09:43:35.810Z,0.80
2022-09-18T09:46:12.526Z,1.35
2022-09-18T09:48:47.931Z,0.80
2022-09-18T09:51:19.769Z,0.88
2022-09-18T09:53:47.097Z,0.93
2022-09-18T09:56:28.765Z,0.70
2022-09-18T09:59:09.057Z,0.65
2022-09-18T10:01:41.296Z,0.80
2022-09-18T10:04:23.788Z,0.85
2022-09-18T10:06:53.785Z,0.90
2022-09-18T10:09:29.526Z,0.80
2022-09-18T10:12:10.314Z,0.80
2022-09-18T10:14:40.173Z,0.80
2022-09-18T10:17:07.776Z,0.60
2022-09-18T10:19:36.668Z,0.80
2022-09-18T10:22:06.038Z,0.80
2022-09-18T10:24:36.165Z,0.70
2022-09-18T10:27:06.467Z,1.00
2022-09-18T10:29:35.966Z,0.88
2022-09-18T10:32:04.433Z,0.70
2022-09-18T10:34:50.572Z,1.08
2022-09-18T10:37:29.967Z,0.73
2022-09-18T10:39:59.802Z,1.50
2022-09-18T10:42:28.048Z,0.90
2022-09-18T10:45:02.060Z,0.73
2022-09-18T10:47:33.576Z,0.75
2022-09-18T10:50:06.217Z,0.80
2022-09-18T10:52:54.043Z,0.70
2022-09-18T10:55:22.479Z,0.80
2022-09-18T10:57:49.621Z,0.98
2022-09-18T11:00:19.790Z,0.90
2022-09-18T11:02:52.000Z,1.13
2022-09-18T11:05:20.245Z,0.70
2022-09-18T11:07:55.333Z,0.93
2022-09-18T11:10:24.222Z,1.00
2022-09-18T11:12:55.675Z,1.35
2022-09-18T11:15:25.533Z,0.70
2022-09-18T11:17:53.741Z,0.80
2022-09-18T11:20:24.684Z,1.10
2022-09-18T11:22:52.380Z,1.30
2022-09-18T11:25:19.636Z,1.40
2022-09-18T11:27:48.348Z,1.10
2022-09-18T11:30:35.797Z,0.82
2022-09-18T11:33:13.515Z,0.80
2022-09-18T11:35:45.473Z,1.10
2022-09-18T11:38:16.520Z,1.10
2022-09-18T11:40:46.065Z,1.00
2022-09-18T11:43:17.171Z,1.65
2022-09-18T11:46:03.397Z,1.70
2022-09-18T11:48:30.841Z,1.75
2022-09-18T11:51:01.622Z,1.45
2022-09-18T11:53:49.016Z,1.25
2022-09-18T11:56:23.944Z,0.70
2022-09-18T11:59:00.419Z,0.88
2022-09-18T12:01:31.801Z,0.80
2022-09-18T12:03:58.872Z,0.80
2022-09-18T12:06:44.761Z,1.02
2022-09-18T12:09:20.741Z,0.70
2022-09-18T12:11:59.790Z,0.90
2022-09-18T12:14:29.633Z,0.93
2022-09-18T12:17:13.357Z,1.30
2022-09-18T12:19:48.260Z,0.90
2022-09-18T12:22:20.611Z,1.10
2022-09-18T12:24:47.770Z,0.80
2022-09-18T12:27:20.858Z,0.95
2022-09-18T12:30:11.392Z,0.70
2022-09-18T12:32:54.064Z,0.82
2022-09-18T12:35:33.314Z,1.10
2022-09-18T12:38:18.679Z,0.90
2022-09-18T12:41:05.190Z,0.98
2022-09-18T12:43:58.537Z,0.85
2022-09-18T12:46:30.141Z,0.90
2022-09-18T12:49:16.155Z,1.00
2022-09-18T12:51:48.680Z,0.82
2022-09-18T12:54:21.775Z,0.85
2022-09-18T12:57:07.611Z,1.05
2022-09-18T12:59:44.121Z,0.75
2022-09-18T13:02:17.414Z,0.98
2022-09-18T13:04:47.473Z,1.00
2022-09-18T13:07:17.637Z,0.70
2022-09-18T13:09:50.175Z,1.38
2022-09-18T13:12:34.478Z,2.13
2022-09-18T13:15:06.380Z,1.60
2022-09-18T13:17:36.074Z,1.40
2022-09-18T13:20:07.476Z,1.00
2022-09-18T13:22:36.712Z,0.80
2022-09-18T13:25:04.697Z,1.20
2022-09-18T13:27:32.339Z,1.02
2022-09-18T13:29:59.743Z,0.75
2022-09-18T13:32:37.165Z,1.45
2022-09-18T13:35:07.135Z,1.35
2022-09-18T13:37:34.332Z,0.80
2022-09-18T13:40:11.858Z,0.80
2022-09-18T13:42:40.269Z,0.80
2022-09-18T13:45:07.643Z,1.10
2022-09-18T13:47:54.700Z,0.70
2022-09-18T13:50:21.841Z,0.80
2022-09-18T13:52:55.442Z,0.90
2022-09-18T13:55:28.571Z,1.00
2022-09-18T13:58:28.326Z,1.05
2022-09-18T14:00:55.469Z,1.50
2022-09-18T14:03:27.775Z,0.93
2022-09-18T14:05:55.256Z,1.70
2022-09-18T14:08:22.497Z,2.63
2022-09-18T14:11:11.680Z,1.10
2022-09-18T14:13:38.495Z,1.00
2022-09-18T14:16:08.410Z,1.65
2022-09-18T14:18:44.538Z,1.88
2022-09-18T14:21:19.100Z,1.70
2022-09-18T14:23:46.251Z,1.73
2022-09-18T14:26:32.101Z,1.25
2022-09-18T14:29:18.917Z,2.25
2022-09-18T14:31:46.973Z,2.03
2022-09-18T14:34:20.730Z,2.60
2022-09-18T14:36:49.065Z,2.47
2022-09-18T14:39:26.692Z,2.67
2022-09-18T14:42:14.449Z,1.30
2022-09-18T14:44:48.204Z,1.23
2022-09-18T14:47:21.189Z,1.55
2022-09-18T14:49:49.400Z,1.50
2022-09-18T14:52:24.002Z,1.10
2022-09-18T14:54:52.187Z,0.85
2022-09-18T14:57:21.728Z,0.80
2022-09-18T14:59:50.522Z,0.95
2022-09-18T15:02:28.165Z,1.20
2022-09-18T15:04:55.602Z,0.82
2022-09-18T15:07:23.297Z,1.20
2022-09-18T15:09:52.932Z,1.70
2022-09-18T15:12:21.664Z,3.28
2022-09-18T15:14:49.065Z,1.80
2022-09-18T15:17:32.441Z,1.70
2022-09-18T15:20:10.161Z,1.33
2022-09-18T15:22:37.419Z,0.60
2022-09-18T15:25:05.422Z,0.90
2022-09-18T15:27:33.047Z,0.95
2022-09-18T15:30:03.737Z,1.33
2022-09-18T15:32:39.065Z,1.67
2022-09-18T15:35:08.855Z,1.13
2022-09-18T15:37:38.353Z,1.95
2022-09-18T15:40:07.783Z,2.00
2022-09-18T15:42:40.492Z,1.52
2022-09-18T15:45:07.582Z,1.10
2022-09-18T15:47:36.628Z,1.90
2022-09-18T15:50:12.895Z,1.10
2022-09-18T15:52:40.014Z,0.90
2022-09-18T15:55:18.093Z,1.70
2022-09-18T15:57:49.233Z,1.00
2022-09-18T16:00:19.787Z,1.52
2022-09-18T16:02:53.780Z,1.98
2022-09-18T16:05:21.881Z,1.02
2022-09-18T16:07:53.988Z,1.67
2022-09-18T16:10:40.935Z,1.88
2022-09-18T16:13:14.280Z,1.30
2022-09-18T16:15:47.234Z,1.00
2022-09-18T16:18:29.014Z,0.90
2022-09-18T16:20:57.673Z,1.30
2022-09-18T16:26:03.303Z,2.80
2022-09-18T16:28:32.155Z,1.38
2022-09-18T16:30:59.254Z,3.05
2022-09-18T16:33:27.579Z,4.28
2022-09-18T16:36:01.628Z,6.30
2022-09-18T16:38:28.763Z,5.40
2022-09-18T16:40:55.938Z,4.68
2022-09-18T16:43:23.284Z,3.75
2022-09-18T16:45:50.404Z,3.65
2022-09-18T16:48:17.911Z,2.38
2022-09-18T16:50:45.132Z,1.75
2022-09-18T16:53:12.275Z,2.05
2022-09-18T16:55:40.789Z,1.75
2022-09-18T16:58:09.269Z,2.33
2022-09-18T17:00:37.672Z,2.25
2022-09-18T17:03:08.053Z,1.98
2022-09-18T17:05:35.743Z,1.65
2022-09-18T17:08:03.948Z,2.53
2022-09-18T17:10:31.719Z,2.92
2022-09-18T17:12:59.103Z,2.58
2022-09-18T17:15:26.829Z,2.78
2022-09-18T17:17:53.983Z,3.35
2022-09-18T17:20:21.351Z,2.17
2022-09-18T17:22:49.595Z,1.90
2022-09-18T17:25:16.845Z,2.22
2022-09-18T17:27:44.221Z,2.35
2022-09-18T17:30:12.673Z,2.47
2022-09-18T17:32:39.912Z,2.50
2022-09-18T17:35:07.384Z,2.63
2022-09-18T17:37:34.730Z,2.67
2022-09-18T17:40:02.028Z,2.78
2022-09-18T17:42:29.264Z,2.30
2022-09-18T17:44:56.704Z,2.65
2022-09-18T17:47:24.368Z,3.30
2022-09-18T17:49:51.442Z,2.00
2022-09-18T17:52:18.740Z,1.85
2022-09-18T17:54:45.833Z,1.70
2022-09-18T17:57:13.124Z,1.52
2022-09-18T17:59:41.279Z,1.98
2022-09-18T18:02:09.341Z,1.85
2022-09-18T18:04:36.610Z,1.80
2022-09-18T18:07:04.243Z,1.80
2022-09-18T18:09:31.480Z,2.40
2022-09-18T18:11:58.830Z,2.20
2022-09-18T18:14:25.900Z,2.75
2022-09-18T18:16:54.394Z,2.55
2022-09-18T18:19:21.542Z,4.38
2022-09-18T18:21:48.704Z,3.97
2022-09-18T18:24:18.377Z,2.85
2022-09-18T18:26:46.778Z,2.30
2022-09-18T18:29:14.975Z,2.30
2022-09-18T18:31:43.266Z,2.78
2022-09-18T18:34:11.220Z,3.85
2022-09-18T18:36:39.896Z,2.15
2022-09-18T18:41:37.302Z,3.28
2022-09-18T18:44:07.640Z,2.88
2022-09-18T18:46:36.557Z,2.53
2022-09-18T18:49:07.576Z,3.47
2022-09-18T18:51:36.110Z,2.90
2022-09-18T18:54:04.317Z,2.70
2022-09-18T18:56:33.934Z,2.75
2022-09-18T18:59:01.956Z,2.22
2022-09-18T19:01:29.622Z,2.83
2022-09-18T19:04:06.782Z,3.58
2022-09-18T19:06:34.445Z,13.15
2022-09-18T19:09:02.481Z,3.67
2022-09-18T19:11:31.524Z,3.05
2022-09-18T19:13:59.903Z,3.42
2022-09-18T19:16:28.697Z,9.70
2022-09-18T19:19:00.307Z,4.18
2022-09-18T19:21:28.297Z,2.35
2022-09-18T19:23:56.422Z,2.92
2022-09-18T19:26:24.576Z,2.10
2022-09-18T19:28:56.011Z,2.83
2022-09-18T19:31:23.234Z,1.98
2022-09-18T19:33:52.435Z,3.50
2022-09-18T19:36:20.777Z,2.28
2022-09-18T19:38:54.877Z,3.72
2022-09-18T19:41:38.872Z,3.10
2022-09-18T19:44:17.919Z,4.00
2022-09-18T19:46:48.006Z,2.78
2022-09-18T19:49:17.320Z,2.75
2022-09-18T19:51:44.609Z,2.00
2022-09-18T19:54:11.817Z,2.88
2022-09-18T19:56:43.341Z,2.85
2022-09-18T19:59:10.799Z,2.45
2022-09-18T20:01:37.954Z,2.72
2022-09-18T20:04:05.142Z,2.90
2022-09-18T20:06:32.954Z,3.30
2022-09-18T20:09:00.459Z,2.42
2022-09-18T20:11:27.618Z,2.75
2022-09-18T20:13:55.258Z,2.97
2022-09-18T20:16:22.781Z,2.38
2022-09-18T20:18:50.151Z,2.55
2022-09-18T20:21:18.205Z,2.25
2022-09-18T20:23:45.685Z,1.63
2022-09-18T20:26:14.709Z,1.52
2022-09-18T20:28:42.131Z,1.70
2022-09-18T20:31:10.971Z,1.60
2022-09-18T20:33:38.324Z,1.77
2022-09-18T20:36:06.294Z,1.48
2022-09-18T20:38:34.311Z,1.90
2022-09-18T20:41:06.586Z,1.63
2022-09-18T20:43:35.547Z,1.33
2022-09-18T20:46:04.523Z,2.13
2022-09-18T20:48:35.563Z,1.63
2022-09-18T20:51:09.565Z,1.65
2022-09-18T20:53:40.775Z,1.67
2022-09-18T20:56:08.749Z,2.00
2022-09-18T20:58:37.771Z,1.55
2022-09-18T21:01:08.439Z,1.80
2022-09-18T21:03:36.220Z,1.77
2022-09-18T21:06:21.735Z,1.60
2022-09-18T21:08:49.752Z,1.33
2022-09-18T21:11:18.144Z,1.58
2022-09-18T21:13:49.124Z,1.42
2022-09-18T21:16:19.570Z,1.27
2022-09-18T21:18:47.276Z,1.35
2022-09-18T21:21:15.135Z,1.35
2022-09-18T21:24:02.015Z,1.10
2022-09-18T21:26:33.425Z,0.95
2022-09-18T21:29:08.361Z,1.80
2022-09-18T21:31:38.600Z,1.48
2022-09-18T21:34:06.141Z,1.27
2022-09-18T21:36:33.586Z,1.27
2022-09-18T21:39:00.968Z,0.77
2022-09-18T21:41:28.047Z,1.38
2022-09-18T21:43:56.409Z,1.05
2022-09-18T21:46:23.872Z,1.23
2022-09-18T21:48:55.850Z,1.60
2022-09-18T21:51:22.981Z,1.52
2022-09-18T21:53:50.201Z,1.05
2022-09-18T21:56:18.765Z,1.27
2022-09-18T21:58:46.389Z,1.23
2022-09-18T22:01:16.100Z,1.58
2022-09-18T22:03:50.427Z,1.15
2022-09-18T22:06:18.858Z,1.13
2022-09-18T22:08:48.786Z,1.42
2022-09-18T22:11:16.228Z,1.33
2022-09-18T22:13:43.360Z,1.13
2022-09-18T22:16:10.506Z,1.13
2022-09-18T22:18:40.414Z,0.98
2022-09-18T22:21:17.901Z,0.65
2022-09-18T22:23:45.117Z,1.50
2022-09-18T22:26:12.429Z,0.90
2022-09-18T22:28:41.252Z,1.15
2022-09-18T22:31:08.357Z,0.80
2022-09-18T22:33:35.515Z,0.85
2022-09-18T22:36:05.683Z,1.17
2022-09-18T22:38:33.447Z,1.50
2022-09-18T22:41:04.154Z,1.52
2022-09-18T22:43:31.286Z,1.27
2022-09-18T22:46:14.901Z,1.40
2022-09-18T22:48:42.691Z,1.48
2022-09-18T22:51:11.360Z,1.20
2022-09-18T22:53:41.940Z,1.85
2022-09-18T22:56:12.990Z,1.00
2022-09-18T22:58:43.971Z,1.20
2022-09-18T23:01:13.066Z,0.93
2022-09-18T23:03:40.743Z,1.00
2022-09-18T23:06:08.510Z,1.60
2022-09-18T23:08:36.596Z,0.70
2022-09-18T23:11:08.608Z,0.57
2022-09-18T23:13:36.843Z,1.20
2022-09-18T23:16:08.451Z,0.95
2022-09-18T23:18:35.658Z,1.70
2022-09-18T23:21:07.119Z,0.43
2022-09-18T23:23:35.396Z,0.77
2022-09-18T23:26:04.121Z,0.80
2022-09-18T23:31:02.293Z,1.02
2022-09-18T23:33:29.536Z,0.52
2022-09-18T23:35:56.674Z,1.13
2022-09-18T23:38:23.749Z,0.80
2022-09-18T23:40:50.826Z,0.90
2022-09-18T23:43:17.894Z,0.57
2022-09-18T23:45:44.997Z,0.32
2022-09-18T23:48:12.313Z,1.20
2022-09-18T23:50:41.468Z,0.90
2022-09-18T23:53:08.539Z,1.02
2022-09-18T23:55:35.624Z,0.73
2022-09-18T23:58:02.852Z,0.80
